Richton Park, Illinois
Current Conditions -  °F | °C
As of 3:35 PM on Saturday 22 Nov 2014 (Local Time) from KIGQ Reporting Station
Overcast Overcast  
Wind Chill: 45°   Ceiling: 2000
Heat Index: 50°   Visibility: 10mi
Dew Point: 47°   Wind: 12mph
Humidity: 89%   Direction: 210°SSW
Pressure: 29.9"   Gusts: NA
Location:  41.48°N, 87.72°W
Report Text: KIGQ 222135Z AUTO 21010KT 10SM OVC020 10/08 A2990 RMK AO2 T00980081
Loading
Personal Weather Stations






























Interactive Weather Map New forecast layout! Learn more

10-Day Weather Forecast

Advertisements
Track Severe Weather on mobile